Time;durP1;ratioP1;P1;durP2;ratioP2;P2;SDS_P1;SDS_P2;PMS_P1;PMS_P2;Temp;Humidity;BMP_temperature;BMP_pressure;BME280_temperature;BME280_humidity;BME280_pressure;Samples;Min_cycle;Max_cycle;Signal;HPM_P1;HPM_P2
2021/04/17 00:01:55;;;;;;;;;;;3.20;99.90;;;;;;5102097;27;19934;-83
2021/04/17 00:04:38;;;;;;;;;;;3.10;99.90;;;;;;5094980;27;19917;-88
2021/04/17 00:07:17;;;;;;;;;;;3.10;99.90;;;;;;5104583;27;20292;-86
2021/04/17 00:09:45;;;;;;;;;;;3.30;99.90;;;;;;5093667;28;19935;-85
2021/04/17 00:12:24;;;;;;;;;;;3.10;99.90;;;;;;5077782;28;20270;-87
2021/04/17 00:15:06;;;;;;;;;;;3.00;99.90;;;;;;5088166;28;19912;-83
2021/04/17 00:17:47;;;;;;;;;;;3.10;99.90;;;;;;5090946;28;20463;-85
2021/04/17 00:20:26;;;;;;;;;;;3.10;99.90;;;;;;5100232;27;19916;-85
2021/04/17 00:23:05;;;;;;;;;;;3.10;99.90;;;;;;5134334;27;19912;-83
2021/04/17 00:25:47;;;;;;;;;;;3.10;99.90;;;;;;5129028;27;19938;-83
2021/04/17 00:28:15;;;;;;;;;;;3.00;99.90;;;;;;5096289;28;20284;-83
2021/04/17 00:30:42;;;;;;;;;;;3.00;99.90;;;;;;5073738;28;19924;-84
2021/04/17 00:33:09;;;;;;;;;;;2.90;99.90;;;;;;5061526;28;19932;-85
2021/04/17 00:35:36;;;;;;;;;;;2.90;99.90;;;;;;5074999;28;19928;-84
2021/04/17 00:38:03;;;;;;;;;;;2.80;99.90;;;;;;5112085;28;19931;-84
2021/04/17 00:40:31;;;;;;;;;;;2.90;99.90;;;;;;5111546;28;20375;-83
2021/04/17 00:42:58;;;;;;;;;;;2.80;99.90;;;;;;5076857;28;19928;-83
2021/04/17 00:45:29;;;;;;;;;;;2.80;99.90;;;;;;5077480;28;19935;-84
2021/04/17 00:47:56;;;;;;;;;;;2.80;99.90;;;;;;5091499;28;19940;-83
2021/04/17 00:50:25;;;;;;;;;;;2.80;99.90;;;;;;5086512;28;19928;-83
2021/04/17 00:52:52;;;;;;;;;;;2.80;99.90;;;;;;5108788;28;20302;-83
2021/04/17 00:55:20;;;;;;;;;;;2.80;99.90;;;;;;5093056;28;19931;-84
2021/04/17 00:57:47;;;;;;;;;;;2.70;99.90;;;;;;5096322;28;19929;-84
2021/04/17 01:00:15;;;;;;;;;;;2.70;99.90;;;;;;5063074;28;20690;-86
2021/04/17 01:02:47;;;;;;;;;;;2.60;99.90;;;;;;5083313;28;19931;-83
2021/04/17 01:05:17;;;;;;;;;;;2.60;99.90;;;;;;5062136;28;19939;-84
2021/04/17 01:07:49;;;;;;;;;;;2.60;99.90;;;;;;5103165;28;19928;-87
2021/04/17 01:10:22;;;;;;;;;;;2.50;99.90;;;;;;5102129;28;19944;-85
2021/04/17 01:12:55;;;;;;;;;;;2.60;99.90;;;;;;5103480;28;19928;-85
2021/04/17 01:15:23;;;;;;;;;;;2.40;99.90;;;;;;5082336;28;19924;-84
2021/04/17 01:17:54;;;;;;;;;;;2.40;99.90;;;;;;5096553;28;20403;-84
2021/04/17 01:20:26;;;;;;;;;;;2.30;99.90;;;;;;5096153;28;20568;-84
2021/04/17 01:23:08;;;;;;;;;;;2.30;99.90;;;;;;5076427;28;19924;-84
2021/04/17 01:25:41;;;;;;;;;;;2.30;99.90;;;;;;5082974;28;19940;-84
2021/04/17 01:28:08;;;;;;;;;;;2.30;99.90;;;;;;5077520;28;19932;-84
2021/04/17 01:30:35;;;;;;;;;;;2.20;99.90;;;;;;5077670;28;19931;-85
2021/04/17 01:33:04;;;;;;;;;;;2.20;99.90;;;;;;5095824;28;19924;-83
2021/04/17 01:35:31;;;;;;;;;;;2.10;99.90;;;;;;5072743;28;19924;-84
2021/04/17 01:38:19;;;;;;;;;;;2.20;99.90;;;;;;5080136;28;19924;-83
2021/04/17 01:40:48;;;;;;;;;;;2.00;99.90;;;;;;5080823;28;19924;-84
2021/04/17 01:43:16;;;;;;;;;;;2.00;99.90;;;;;;5063221;28;20458;-83
2021/04/17 01:45:44;;;;;;;;;;;2.00;99.90;;;;;;5063091;28;19924;-84
2021/04/17 01:48:12;;;;;;;;;;;1.90;99.90;;;;;;5065890;28;19931;-85
2021/04/17 01:50:40;;;;;;;;;;;1.90;99.90;;;;;;5065883;28;19925;-83
2021/04/17 01:53:11;;;;;;;;;;;1.90;99.90;;;;;;5074694;28;19936;-84
2021/04/17 01:55:40;;;;;;;;;;;1.90;99.90;;;;;;5044541;28;20682;-84
2021/04/17 01:58:09;;;;;;;;;;;1.80;99.90;;;;;;5064081;28;19940;-86
2021/04/17 02:00:40;;;;;;;;;;;1.90;99.90;;;;;;5066222;28;19935;-85
2021/04/17 02:03:07;;;;;;;;;;;1.90;99.90;;;;;;5075967;28;19925;-84
2021/04/17 02:05:34;;;;;;;;;;;1.80;99.90;;;;;;5064934;28;19933;-83
2021/04/17 02:08:02;;;;;;;;;;;1.60;99.90;;;;;;5066840;28;19928;-85
2021/04/17 02:10:30;;;;;;;;;;;1.70;99.90;;;;;;5087550;28;19925;-84
2021/04/17 02:12:57;;;;;;;;;;;1.80;99.90;;;;;;5065311;28;20304;-84
2021/04/17 02:15:29;;;;;;;;;;;1.70;99.90;;;;;;5068788;28;19936;-84
2021/04/17 02:18:07;;;;;;;;;;;1.60;99.90;;;;;;5084999;28;19931;-84
2021/04/17 02:20:47;;;;;;;;;;;1.60;99.90;;;;;;5067042;28;19932;-84
2021/04/17 02:23:15;;;;;;;;;;;1.70;99.90;;;;;;5066434;28;19928;-84
2021/04/17 02:25:42;;;;;;;;;;;1.60;99.90;;;;;;5064662;28;19925;-84
2021/04/17 02:28:10;;;;;;;;;;;1.60;99.90;;;;;;5083456;28;19931;-86
2021/04/17 02:30:37;;;;;;;;;;;1.70;99.90;;;;;;5062647;28;19932;-83
2021/04/17 02:33:05;;;;;;;;;;;1.60;99.90;;;;;;5082042;28;19924;-84
2021/04/17 02:35:33;;;;;;;;;;;1.70;99.90;;;;;;5060752;28;19924;-84
2021/04/17 02:38:00;;;;;;;;;;;1.60;99.90;;;;;;5080074;28;19928;-86
2021/04/17 02:40:28;;;;;;;;;;;1.70;99.90;;;;;;5051001;28;19928;-85
2021/04/17 02:42:56;;;;;;;;;;;1.60;99.90;;;;;;5050764;28;19924;-83
2021/04/17 02:45:23;;;;;;;;;;;1.50;99.90;;;;;;5066566;28;19925;-83
2021/04/17 02:47:50;;;;;;;;;;;1.50;99.90;;;;;;5065478;28;20288;-84
2021/04/17 02:50:20;;;;;;;;;;;1.50;99.90;;;;;;5063477;28;20640;-85
2021/04/17 02:52:50;;;;;;;;;;;1.50;99.90;;;;;;5082428;28;19929;-85
2021/04/17 02:55:18;;;;;;;;;;;1.40;99.90;;;;;;5085356;28;19925;-83
2021/04/17 02:57:46;;;;;;;;;;;1.40;99.90;;;;;;5064125;28;19925;-84
2021/04/17 03:00:15;;;;;;;;;;;1.40;99.90;;;;;;5061920;28;19934;-84
2021/04/17 03:02:43;;;;;;;;;;;1.40;99.90;;;;;;5081635;28;19924;-87
2021/04/17 03:05:11;;;;;;;;;;;1.40;99.90;;;;;;5085976;28;19928;-84
2021/04/17 03:07:38;;;;;;;;;;;1.30;99.90;;;;;;5085877;28;19925;-84
2021/04/17 03:10:06;;;;;;;;;;;1.40;99.90;;;;;;5087139;28;20319;-84
2021/04/17 03:12:33;;;;;;;;;;;1.30;99.90;;;;;;5087038;28;19924;-84
2021/04/17 03:15:01;;;;;;;;;;;1.30;99.90;;;;;;5069101;28;19932;-83
2021/04/17 03:17:28;;;;;;;;;;;1.10;99.90;;;;;;5068850;28;19925;-84
2021/04/17 03:19:55;;;;;;;;;;;1.20;99.90;;;;;;5053888;28;19929;-84
2021/04/17 03:22:22;;;;;;;;;;;1.20;99.90;;;;;;5085359;28;19939;-84
2021/04/17 03:24:51;;;;;;;;;;;1.10;99.90;;;;;;5082983;28;19943;-83
2021/04/17 03:27:18;;;;;;;;;;;1.10;99.90;;;;;;5089204;28;19964;-83
2021/04/17 03:29:45;;;;;;;;;;;1.10;99.90;;;;;;5090808;28;19928;-83
2021/04/17 03:32:15;;;;;;;;;;;0.90;99.90;;;;;;5091234;28;19924;-84
2021/04/17 03:34:42;;;;;;;;;;;0.90;99.90;;;;;;5073170;28;19924;-84
2021/04/17 03:37:12;;;;;;;;;;;0.80;99.90;;;;;;5074501;28;19915;-83
2021/04/17 03:39:39;;;;;;;;;;;0.90;99.90;;;;;;5094006;28;19928;-83
2021/04/17 03:42:07;;;;;;;;;;;0.90;99.90;;;;;;5093005;28;19925;-83
2021/04/17 03:44:35;;;;;;;;;;;0.90;99.90;;;;;;5075839;28;19990;-83
2021/04/17 03:47:02;;;;;;;;;;;0.80;99.90;;;;;;5095186;28;19914;-82
2021/04/17 03:49:30;;;;;;;;;;;0.90;99.90;;;;;;5077507;28;19912;-84
2021/04/17 03:51:57;;;;;;;;;;;0.80;99.90;;;;;;5094664;28;19924;-83
2021/04/17 03:54:24;;;;;;;;;;;0.90;99.90;;;;;;5095514;28;19935;-82
2021/04/17 03:56:52;;;;;;;;;;;0.90;99.90;;;;;;5077883;28;19908;-83
2021/04/17 03:59:19;;;;;;;;;;;0.80;99.90;;;;;;5077417;28;19944;-83
2021/04/17 04:01:47;;;;;;;;;;;0.90;99.90;;;;;;5093346;28;19915;-83
2021/04/17 04:04:14;;;;;;;;;;;0.80;99.90;;;;;;5090575;28;19928;-84
2021/04/17 04:06:42;;;;;;;;;;;1.00;99.90;;;;;;5093576;28;19924;-83
2021/04/17 04:09:09;;;;;;;;;;;0.80;99.90;;;;;;5075156;28;19929;-83
2021/04/17 04:11:36;;;;;;;;;;;0.60;99.90;;;;;;5064726;28;19924;-83
2021/04/17 04:14:03;;;;;;;;;;;0.80;99.90;;;;;;5075021;28;20376;-83
2021/04/17 04:16:30;;;;;;;;;;;0.80;99.90;;;;;;5075831;28;20086;-83
2021/04/17 04:18:57;;;;;;;;;;;0.60;99.90;;;;;;5074795;28;19924;-83
2021/04/17 04:21:24;;;;;;;;;;;0.70;99.90;;;;;;5074718;28;19935;-83
2021/04/17 04:23:51;;;;;;;;;;;0.70;99.90;;;;;;5059913;28;19932;-82
2021/04/17 04:26:18;;;;;;;;;;;0.70;99.90;;;;;;5073027;28;19924;-83
2021/04/17 04:28:45;;;;;;;;;;;0.70;99.90;;;;;;5074824;28;20264;-83
2021/04/17 04:31:12;;;;;;;;;;;0.70;99.90;;;;;;5056141;28;19924;-83
2021/04/17 04:33:40;;;;;;;;;;;0.70;99.90;;;;;;5074529;28;19940;-83
2021/04/17 04:36:07;;;;;;;;;;;0.70;99.90;;;;;;5054455;28;19931;-82
2021/04/17 04:38:34;;;;;;;;;;;0.70;99.90;;;;;;5042581;28;19940;-83
2021/04/17 04:41:03;;;;;;;;;;;0.80;99.90;;;;;;5070584;28;19924;-83
2021/04/17 04:43:30;;;;;;;;;;;0.70;99.90;;;;;;5073828;28;20495;-84
2021/04/17 04:45:57;;;;;;;;;;;0.70;99.90;;;;;;5052436;28;20299;-83
2021/04/17 04:48:24;;;;;;;;;;;0.60;99.90;;;;;;5068836;28;19929;-83
2021/04/17 04:50:51;;;;;;;;;;;0.70;99.90;;;;;;5062036;28;19932;-83
2021/04/17 04:53:19;;;;;;;;;;;-1.60;99.90;;;;;;5028133;28;20276;-82
2021/04/17 04:55:46;;;;;;;;;;;0.50;99.90;;;;;;5058599;28;19924;-83
2021/04/17 04:58:13;;;;;;;;;;;0.50;99.90;;;;;;5058076;22;19925;-82
2021/04/17 05:00:40;;;;;;;;;;;0.40;99.90;;;;;;5036443;28;19928;-84
2021/04/17 05:03:07;;;;;;;;;;;0.50;99.90;;;;;;5040548;28;19929;-83
2021/04/17 05:05:34;;;;;;;;;;;0.50;99.90;;;;;;5018501;28;19936;-83
2021/04/17 05:08:01;;;;;;;;;;;0.50;99.90;;;;;;5042028;28;19924;-83
2021/04/17 05:10:28;;;;;;;;;;;0.50;99.90;;;;;;5056799;28;19948;-83
2021/04/17 05:12:55;;;;;;;;;;;0.40;99.90;;;;;;5019655;28;20307;-84
2021/04/17 05:15:23;;;;;;;;;;;0.40;99.90;;;;;;5027124;28;19925;-83
2021/04/17 05:17:51;;;;;;;;;;;0.50;99.90;;;;;;5036827;28;20100;-84
2021/04/17 05:20:19;;;;;;;;;;;0.40;99.90;;;;;;5038471;28;19924;-84
2021/04/17 05:22:45;;;;;;;;;;;0.40;99.90;;;;;;5022787;28;19925;-84
2021/04/17 05:25:13;;;;;;;;;;;0.40;99.90;;;;;;5038394;28;19932;-84
2021/04/17 05:27:40;;;;;;;;;;;0.50;99.90;;;;;;5064937;28;19928;-81
2021/04/17 05:30:08;;;;;;;;;;;0.50;99.90;;;;;;5042080;28;20403;-82
2021/04/17 05:32:35;;;;;;;;;;;0.50;99.90;;;;;;5057621;28;20376;-83
2021/04/17 05:35:03;;;;;;;;;;;0.50;99.90;;;;;;5037033;28;19932;-83
2021/04/17 05:37:31;;;;;;;;;;;0.50;99.90;;;;;;5034403;28;19929;-83
2021/04/17 05:39:58;;;;;;;;;;;0.50;99.90;;;;;;5032337;28;19925;-82
2021/04/17 05:42:25;;;;;;;;;;;0.50;99.90;;;;;;5039957;28;19933;-82
2021/04/17 05:44:52;;;;;;;;;;;0.60;99.90;;;;;;5018216;28;19929;-82
2021/04/17 05:47:20;;;;;;;;;;;0.60;99.90;;;;;;5029406;28;19929;-82
2021/04/17 05:49:48;;;;;;;;;;;0.80;99.90;;;;;;5041891;28;20308;-83
2021/04/17 05:52:15;;;;;;;;;;;0.70;99.90;;;;;;5023162;28;20432;-82
2021/04/17 05:54:43;;;;;;;;;;;0.80;99.90;;;;;;5025414;28;19932;-83
2021/04/17 05:57:10;;;;;;;;;;;1.00;99.90;;;;;;5036623;28;20042;-82
2021/04/17 05:59:37;;;;;;;;;;;;;;;;;;5031625;28;19955;-82
2021/04/17 06:02:07;;;;;;;;;;;1.10;99.90;;;;;;5033804;28;19944;-82
2021/04/17 06:04:34;;;;;;;;;;;1.20;99.90;;;;;;5048319;28;19943;-82
2021/04/17 06:07:01;;;;;;;;;;;1.20;99.90;;;;;;5033682;28;19931;-82
2021/04/17 06:09:28;;;;;;;;;;;1.30;99.90;;;;;;5051120;28;19939;-82
2021/04/17 06:11:56;;;;;;;;;;;1.30;99.90;;;;;;5033243;28;20373;-82
2021/04/17 06:14:23;;;;;;;;;;;1.40;99.90;;;;;;5052406;28;19932;-82
2021/04/17 06:16:50;;;;;;;;;;;1.50;99.90;;;;;;5051545;28;19959;-82
2021/04/17 06:19:18;;;;;;;;;;;1.60;99.90;;;;;;5055438;28;19941;-82
2021/04/17 06:21:45;;;;;;;;;;;1.60;99.90;;;;;;5036240;28;19925;-82
2021/04/17 06:24:12;;;;;;;;;;;1.80;99.90;;;;;;5050945;28;19940;-82
2021/04/17 06:26:39;;;;;;;;;;;1.90;99.90;;;;;;5055545;28;19929;-82
2021/04/17 06:29:07;;;;;;;;;;;2.00;99.90;;;;;;5052980;28;19925;-83
2021/04/17 06:31:34;;;;;;;;;;;2.10;99.90;;;;;;5030863;28;19933;-81
2021/04/17 06:34:01;;;;;;;;;;;2.10;99.90;;;;;;5032432;28;19924;-83
2021/04/17 06:36:28;;;;;;;;;;;2.40;99.90;;;;;;5050685;28;19929;-81
2021/04/17 06:38:55;;;;;;;;;;;2.50;99.90;;;;;;5015598;28;20117;-83
2021/04/17 06:41:23;;;;;;;;;;;2.40;99.90;;;;;;5032474;28;19925;-83
2021/04/17 06:43:50;;;;;;;;;;;2.70;99.90;;;;;;5032101;28;19928;-82
2021/04/17 06:46:19;;;;;;;;;;;2.80;99.90;;;;;;5044536;28;19936;-82
2021/04/17 06:48:47;;;;;;;;;;;2.80;99.90;;;;;;5026242;28;19932;-83
2021/04/17 06:51:15;;;;;;;;;;;2.80;99.90;;;;;;5037716;28;19932;-83
2021/04/17 06:53:43;;;;;;;;;;;3.00;99.90;;;;;;5035214;28;19929;-83
2021/04/17 06:56:10;;;;;;;;;;;3.20;99.90;;;;;;5043719;28;19928;-82
2021/04/17 06:58:38;;;;;;;;;;;;;;;;;;5022455;28;19936;-82
2021/04/17 07:01:05;;;;;;;;;;;3.40;99.90;;;;;;5034674;28;20301;-80
2021/04/17 07:03:33;;;;;;;;;;;3.40;99.90;;;;;;5028395;28;20116;-84
2021/04/17 07:06:00;;;;;;;;;;;3.30;99.90;;;;;;5028317;28;19929;-81
2021/04/17 07:08:27;;;;;;;;;;;3.70;99.90;;;;;;5016288;28;19925;-80
2021/04/17 07:10:54;;;;;;;;;;;4.00;99.90;;;;;;5026793;28;20424;-80
2021/04/17 07:13:21;;;;;;;;;;;3.90;99.90;;;;;;5025622;28;20591;-81
2021/04/17 07:15:48;;;;;;;;;;;4.00;99.90;;;;;;5021773;28;20422;-82
2021/04/17 07:18:29;;;;;;;;;;;4.00;99.90;;;;;;5024332;28;20445;-81
2021/04/17 07:21:13;;;;;;;;;;;4.10;99.90;;;;;;5015429;28;19957;-81
2021/04/17 07:23:40;;;;;;;;;;;4.30;99.90;;;;;;5008666;28;19929;-81
2021/04/17 07:26:08;;;;;;;;;;;4.30;99.90;;;;;;5024512;28;19932;-81
2021/04/17 07:28:35;;;;;;;;;;;4.50;99.90;;;;;;5024938;28;19955;-87
2021/04/17 07:31:04;;;;;;;;;;;4.40;99.90;;;;;;5024607;28;19933;-82
2021/04/17 07:33:31;;;;;;;;;;;4.60;99.90;;;;;;5019681;28;19929;-82
2021/04/17 07:36:00;;;;;;;;;;;4.70;99.90;;;;;;5023514;28;19929;-81
2021/04/17 07:38:33;;;;;;;;;;;4.70;99.90;;;;;;5026625;28;19936;-81
2021/04/17 07:41:03;;;;;;;;;;;4.80;99.90;;;;;;5010536;28;19925;-82
2021/04/17 07:43:48;;;;;;;;;;;5.00;99.90;;;;;;5028592;28;20192;-80
2021/04/17 07:46:17;;;;;;;;;;;4.90;99.90;;;;;;5028324;28;19925;-80
2021/04/17 07:48:44;;;;;;;;;;;5.10;99.90;;;;;;5016480;28;19933;-79
2021/04/17 07:51:12;;;;;;;;;;;5.20;99.90;;;;;;5021932;28;19932;-80
2021/04/17 07:53:41;;;;;;;;;;;5.20;99.90;;;;;;5023459;28;19929;-80
2021/04/17 07:56:25;;;;;;;;;;;5.30;99.90;;;;;;5026635;28;19933;-81
2021/04/17 07:59:04;;;;;;;;;;;5.40;99.90;;;;;;5040228;28;20015;-80
2021/04/17 08:01:33;;;;;;;;;;;5.40;99.90;;;;;;5039863;28;19925;-80
2021/04/17 08:04:06;;;;;;;;;;;5.60;99.90;;;;;;5047515;28;19936;-81
2021/04/17 08:06:33;;;;;;;;;;;5.70;99.90;;;;;;5042602;28;19925;-81
2021/04/17 08:09:00;;;;;;;;;;;6.20;99.90;;;;;;5033171;28;19932;-82
2021/04/17 08:11:29;;;;;;;;;;;5.80;99.90;;;;;;5046452;28;20450;-79
2021/04/17 08:14:20;;;;;;;;;;;6.10;99.90;;;;;;5015664;28;20746;-80
2021/04/17 08:16:47;;;;;;;;;;;6.00;99.90;;;;;;5036538;28;19932;-80
2021/04/17 08:19:15;;;;;;;;;;;6.10;99.90;;;;;;5040167;28;19936;-82
2021/04/17 08:21:43;;;;;;;;;;;6.00;99.90;;;;;;5046357;28;19925;-81
2021/04/17 08:24:10;;;;;;;;;;;6.40;99.90;;;;;;5019885;28;19928;-80
2021/04/17 08:26:39;;;;;;;;;;;6.40;99.90;;;;;;5027760;28;19932;-80
2021/04/17 08:29:06;;;;;;;;;;;6.50;99.90;;;;;;5030443;28;20442;-82
2021/04/17 08:31:37;;;;;;;;;;;6.80;99.90;;;;;;5029358;28;20389;-82
2021/04/17 08:34:06;;;;;;;;;;;6.70;99.90;;;;;;5028293;28;19936;-83
2021/04/17 08:36:34;;;;;;;;;;;7.00;99.90;;;;;;5028476;28;19933;-82
2021/04/17 08:39:01;;;;;;;;;;;7.00;99.90;;;;;;5028457;28;19925;-81
2021/04/17 08:41:48;;;;;;;;;;;7.10;99.90;;;;;;5046892;28;19935;-81
2021/04/17 08:44:23;;;;;;;;;;;7.10;99.90;;;;;;5047252;28;19924;-83
2021/04/17 08:46:55;;;;;;;;;;;7.40;99.90;;;;;;5015670;28;20257;-83
2021/04/17 08:49:30;;;;;;;;;;;7.50;99.90;;;;;;5032295;28;19925;-80
2021/04/17 08:52:09;;;;;;;;;;;7.40;99.90;;;;;;5052468;28;19956;-80
2021/04/17 08:54:44;;;;;;;;;;;7.60;99.90;;;;;;4998179;28;20594;-81
2021/04/17 08:57:37;;;;;;;;;;;7.70;99.90;;;;;;5019231;28;19925;-80
2021/04/17 09:00:12;;;;;;;;;;;7.90;99.90;;;;;;5018367;28;19932;-82
2021/04/17 09:02:49;;;;;;;;;;;8.00;99.90;;;;;;5023478;28;19929;-80
2021/04/17 09:05:23;;;;;;;;;;;8.10;99.90;;;;;;5012106;28;19929;-81
2021/04/17 09:08:09;;;;;;;;;;;8.00;99.90;;;;;;5017534;28;19929;-81
2021/04/17 09:10:37;;;;;;;;;;;8.30;99.90;;;;;;5018440;28;19933;-81
2021/04/17 09:13:14;;;;;;;;;;;8.30;99.90;;;;;;5012259;28;19931;-81
2021/04/17 09:15:54;;;;;;;;;;;8.20;99.90;;;;;;5003476;28;19925;-81
2021/04/17 09:18:38;;;;;;;;;;;8.40;99.50;;;;;;5020805;28;19926;-82
2021/04/17 09:21:07;;;;;;;;;;;8.60;96.30;;;;;;5028235;28;19936;-82
2021/04/17 09:23:40;;;;;;;;;;;8.60;95.40;;;;;;5019798;28;19940;-82
2021/04/17 09:26:08;;;;;;;;;;;8.80;93.70;;;;;;5025261;28;19925;-84
2021/04/17 09:28:37;;;;;;;;;;;8.80;94.40;;;;;;5027483;28;19925;-83
2021/04/17 09:31:06;;;;;;;;;;;8.90;94.10;;;;;;5026909;28;19929;-83
2021/04/17 09:33:33;;;;;;;;;;;9.00;94.70;;;;;;5025226;28;19933;-83
2021/04/17 09:36:01;;;;;;;;;;;9.00;93.80;;;;;;5029570;28;19925;-83
2021/04/17 09:38:31;;;;;;;;;;;9.10;93.00;;;;;;5033345;28;19940;-82
2021/04/17 09:40:59;;;;;;;;;;;9.20;93.10;;;;;;5014261;28;19932;-84
2021/04/17 09:43:26;;;;;;;;;;;9.30;91.30;;;;;;5030880;28;19925;-83
2021/04/17 09:45:54;;;;;;;;;;;9.00;91.10;;;;;;5013429;28;19963;-83
2021/04/17 09:48:22;;;;;;;;;;;9.40;91.40;;;;;;5027136;28;19940;-83
2021/04/17 09:50:51;;;;;;;;;;;9.50;90.70;;;;;;5018932;28;19925;-83
2021/04/17 09:53:22;;;;;;;;;;;9.50;90.10;;;;;;5004083;28;19929;-83
2021/04/17 09:55:51;;;;;;;;;;;9.20;91.10;;;;;;5028406;28;19929;-82
2021/04/17 09:58:27;;;;;;;;;;;9.60;90.00;;;;;;5026612;28;19936;-83
2021/04/17 10:00:55;;;;;;;;;;;9.70;90.40;;;;;;5038978;28;19983;-83
2021/04/17 10:03:30;;;;;;;;;;;9.70;89.60;;;;;;5019683;28;20305;-83
2021/04/17 10:06:22;;;;;;;;;;;9.70;90.80;;;;;;5032910;28;20265;-82
2021/04/17 10:08:49;;;;;;;;;;;9.90;90.40;;;;;;5044861;28;19925;-83
2021/04/17 10:11:21;;;;;;;;;;;9.80;90.00;;;;;;5046070;28;19932;-82
2021/04/17 10:13:48;;;;;;;;;;;9.90;90.50;;;;;;5029343;28;19936;-82
2021/04/17 10:16:23;;;;;;;;;;;10.10;90.20;;;;;;5028002;28;19929;-84
2021/04/17 10:18:51;;;;;;;;;;;10.00;88.30;;;;;;5041617;28;19935;-84
2021/04/17 10:21:25;;;;;;;;;;;10.20;86.40;;;;;;5036459;28;19929;-84
2021/04/17 10:24:11;;;;;;;;;;;10.00;85.90;;;;;;5042777;28;19932;-83
2021/04/17 10:26:50;;;;;;;;;;;10.30;85.60;;;;;;5039750;28;19935;-83
2021/04/17 10:29:18;;;;;;;;;;;10.20;85.60;;;;;;5039727;28;20112;-83
2021/04/17 10:31:45;;;;;;;;;;;10.30;87.80;;;;;;5044395;28;19928;-81
2021/04/17 10:34:21;;;;;;;;;;;10.50;88.30;;;;;;5045259;28;19924;-83
2021/04/17 10:36:56;;;;;;;;;;;10.60;86.20;;;;;;5051826;28;20407;-83
2021/04/17 10:39:23;;;;;;;;;;;10.60;85.00;;;;;;5017246;28;19933;-84
2021/04/17 10:41:57;;;;;;;;;;;10.60;86.80;;;;;;5038116;28;19925;-83
2021/04/17 10:44:24;;;;;;;;;;;11.00;85.90;;;;;;5037835;28;20642;-84
2021/04/17 10:46:51;;;;;;;;;;;10.90;84.50;;;;;;5030248;28;20303;-85
2021/04/17 10:49:38;;;;;;;;;;;11.10;83.10;;;;;;5027346;28;19925;-84
2021/04/17 10:52:24;;;;;;;;;;;11.00;84.70;;;;;;5042953;28;19947;-84
2021/04/17 10:54:52;;;;;;;;;;;11.10;82.40;;;;;;5023232;28;20323;-83
2021/04/17 10:57:19;;;;;;;;;;;11.30;82.30;;;;;;5046328;22;20281;-84
2021/04/17 10:59:56;;;;;;;;;;;11.30;82.10;;;;;;4990668;28;19936;-84
2021/04/17 11:02:46;;;;;;;;;;;11.50;80.70;;;;;;4991777;28;20592;-83
2021/04/17 11:05:14;;;;;;;;;;;11.50;81.10;;;;;;5025276;28;20415;-83
2021/04/17 11:07:41;;;;;;;;;;;11.70;80.20;;;;;;5007124;28;19941;-83
2021/04/17 11:10:09;;;;;;;;;;;11.70;79.00;;;;;;4990923;28;20187;-85
2021/04/17 11:12:37;;;;;;;;;;;11.80;81.20;;;;;;5015817;28;19936;-84
2021/04/17 11:15:23;;;;;;;;;;;11.80;79.50;;;;;;5031005;28;20223;-88
2021/04/17 11:18:10;;;;;;;;;;;11.90;79.60;;;;;;5040814;28;19929;-86
2021/04/17 11:20:46;;;;;;;;;;;12.00;79.00;;;;;;5033771;28;19933;-83
2021/04/17 11:23:32;;;;;;;;;;;12.10;78.50;;;;;;5038404;28;19936;-85
2021/04/17 11:26:22;;;;;;;;;;;12.10;78.30;;;;;;5035018;28;19925;-87
2021/04/17 11:29:07;;;;;;;;;;;12.20;77.50;;;;;;5012727;28;19936;-86
2021/04/17 11:31:37;;;;;;;;;;;12.40;79.30;;;;;;5023137;28;19933;-86
2021/04/17 11:34:06;;;;;;;;;;;12.40;78.90;;;;;;5026116;28;19940;-85
2021/04/17 11:36:34;;;;;;;;;;;12.60;77.60;;;;;;4992296;28;19933;-85
2021/04/17 11:39:02;;;;;;;;;;;12.60;77.90;;;;;;5024451;28;20497;-85
2021/04/17 11:41:29;;;;;;;;;;;12.60;78.20;;;;;;5010081;28;19993;-86
2021/04/17 11:43:56;;;;;;;;;;;12.90;77.60;;;;;;4993179;28;19925;-86
2021/04/17 11:46:23;;;;;;;;;;;12.90;78.60;;;;;;5024804;28;19932;-85
2021/04/17 11:48:52;;;;;;;;;;;13.00;78.70;;;;;;5014234;28;19929;-86
2021/04/17 11:51:20;;;;;;;;;;;13.00;78.70;;;;;;5025594;28;19929;-86
2021/04/17 11:53:48;;;;;;;;;;;13.20;79.20;;;;;;5003961;28;19930;-85
2021/04/17 11:56:16;;;;;;;;;;;13.30;80.00;;;;;;5011491;28;19929;-87
2021/04/17 11:58:43;;;;;;;;;;;13.50;76.80;;;;;;5000278;28;19941;-86
2021/04/17 12:01:10;;;;;;;;;;;13.60;76.30;;;;;;5007262;28;19936;-85
2021/04/17 12:03:38;;;;;;;;;;;13.80;75.70;;;;;;5007239;28;20001;-85
2021/04/17 12:06:07;;;;;;;;;;;13.70;76.70;;;;;;5004160;28;19930;-86
2021/04/17 12:08:34;;;;;;;;;;;13.60;76.60;;;;;;5006804;28;19948;-85
2021/04/17 12:11:02;;;;;;;;;;;13.90;75.60;;;;;;5001139;28;19929;-84
2021/04/17 12:13:30;;;;;;;;;;;13.90;75.00;;;;;;5005822;28;19936;-84
2021/04/17 12:15:57;;;;;;;;;;;13.90;74.70;;;;;;5005859;28;19934;-83
2021/04/17 12:18:25;;;;;;;;;;;14.00;75.20;;;;;;5007738;28;20304;-85
2021/04/17 12:20:52;;;;;;;;;;;14.70;75.00;;;;;;5002214;28;19937;-84
2021/04/17 12:23:20;;;;;;;;;;;14.10;74.20;;;;;;5009273;28;19929;-86
2021/04/17 12:25:47;;;;;;;;;;;14.10;74.90;;;;;;5020342;28;19932;-85
2021/04/17 12:28:15;;;;;;;;;;;14.30;73.70;;;;;;5019337;28;19929;-85
2021/04/17 12:30:42;;;;;;;;;;;14.50;76.00;;;;;;5003869;28;19956;-87
2021/04/17 12:33:09;;;;;;;;;;;14.40;74.80;;;;;;5004602;28;19933;-85
2021/04/17 12:35:37;;;;;;;;;;;14.20;73.90;;;;;;5020947;28;19930;-85
2021/04/17 12:38:05;;;;;;;;;;;14.60;73.60;;;;;;5015256;28;20480;-86
2021/04/17 12:40:36;;;;;;;;;;;14.60;72.20;;;;;;4997232;28;19946;-87
2021/04/17 12:43:04;;;;;;;;;;;14.70;72.90;;;;;;5006286;28;19929;-86
2021/04/17 12:45:31;;;;;;;;;;;14.60;72.40;;;;;;5014814;28;19949;-85
2021/04/17 12:47:58;;;;;;;;;;;14.60;72.10;;;;;;5006971;28;20337;-86
2021/04/17 12:50:26;;;;;;;;;;;14.60;72.50;;;;;;5004287;28;19949;-86
2021/04/17 12:52:53;;;;;;;;;;;14.60;73.20;;;;;;5006835;28;19925;-85
2021/04/17 12:55:21;;;;;;;;;;;14.60;72.40;;;;;;5005411;28;19930;-85
2021/04/17 12:57:48;;;;;;;;;;;14.70;71.60;;;;;;5009028;28;19936;-85
2021/04/17 13:00:15;;;;;;;;;;;14.70;71.10;;;;;;4988681;28;19929;-87
2021/04/17 13:02:46;;;;;;;;;;;14.90;71.10;;;;;;5006451;28;19929;-86
2021/04/17 13:05:17;;;;;;;;;;;14.90;72.20;;;;;;5022245;28;21610;-85
2021/04/17 13:07:44;;;;;;;;;;;15.20;70.50;;;;;;5024171;28;19932;-86
2021/04/17 13:10:15;;;;;;;;;;;15.10;70.90;;;;;;5005569;28;19929;-86
2021/04/17 13:12:43;;;;;;;;;;;15.20;70.10;;;;;;4993867;28;20473;-86
2021/04/17 13:15:11;;;;;;;;;;;15.30;68.80;;;;;;5022553;28;19936;-86
2021/04/17 13:17:39;;;;;;;;;;;15.50;69.70;;;;;;5026773;28;19936;-85
2021/04/17 13:20:07;;;;;;;;;;;15.50;68.50;;;;;;5000800;28;19951;-88
2021/04/17 13:22:34;;;;;;;;;;;15.60;69.40;;;;;;5000442;28;19929;-87
2021/04/17 13:25:02;;;;;;;;;;;15.70;68.30;;;;;;5023099;28;19926;-87
2021/04/17 13:27:30;;;;;;;;;;;15.80;68.90;;;;;;5006231;28;19929;-88
2021/04/17 13:29:59;;;;;;;;;;;15.60;68.80;;;;;;5026574;28;19926;-89
2021/04/17 13:32:26;;;;;;;;;;;15.60;69.60;;;;;;5015639;28;19944;-89
2021/04/17 13:34:54;;;;;;;;;;;15.80;69.30;;;;;;5011084;28;19936;-90
2021/04/17 13:37:23;;;;;;;;;;;15.90;69.80;;;;;;5038794;28;19932;-87
2021/04/17 13:39:50;;;;;;;;;;;16.00;69.40;;;;;;5032245;28;19929;-89
2021/04/17 13:42:18;;;;;;;;;;;;;;;;;;5030043;28;19933;-88
2021/04/17 13:44:45;;;;;;;;;;;16.60;68.30;;;;;;4997705;28;19940;-89
2021/04/17 13:47:12;;;;;;;;;;;16.40;67.70;;;;;;5028119;28;19929;-88
2021/04/17 13:49:40;;;;;;;;;;;17.10;67.70;;;;;;5011323;28;20675;-88
2021/04/17 13:52:07;;;;;;;;;;;16.60;66.40;;;;;;5028653;28;19936;-89
2021/04/17 13:54:34;;;;;;;;;;;17.60;66.60;;;;;;5021732;28;19936;-86
2021/04/17 13:57:01;;;;;;;;;;;18.00;65.40;;;;;;4999610;28;19932;-88
2021/04/17 13:59:29;;;;;;;;;;;18.20;65.20;;;;;;5011402;28;19929;-89
2021/04/17 14:01:56;;;;;;;;;;;18.80;65.60;;;;;;4999879;28;19929;-87
2021/04/17 14:04:24;;;;;;;;;;;19.90;64.30;;;;;;5008658;28;19930;-87
2021/04/17 14:06:51;;;;;;;;;;;18.90;64.30;;;;;;5013451;28;20647;-86
2021/04/17 14:09:18;;;;;;;;;;;;;;;;;;5002419;28;19940;-87
2021/04/17 14:11:45;;;;;;;;;;;19.10;63.40;;;;;;5017725;28;19929;-86
2021/04/17 14:14:13;;;;;;;;;;;19.50;62.50;;;;;;5011036;28;19925;-88
2021/04/17 14:16:40;;;;;;;;;;;19.70;60.70;;;;;;4996741;28;19956;-87
2021/04/17 14:19:08;;;;;;;;;;;19.70;60.80;;;;;;5019566;28;19933;-88
2021/04/17 14:21:35;;;;;;;;;;;19.90;59.60;;;;;;5028840;28;19936;-87
2021/04/17 14:24:02;;;;;;;;;;;19.80;60.40;;;;;;5027240;28;19936;-87
2021/04/17 14:26:29;;;;;;;;;;;19.70;59.30;;;;;;5017367;28;19925;-91
2021/04/17 14:28:56;;;;;;;;;;;20.00;60.50;;;;;;5028783;28;19936;-89
2021/04/17 14:31:24;;;;;;;;;;;20.30;60.40;;;;;;5036364;28;19929;-86
2021/04/17 14:34:01;;;;;;;;;;;20.50;59.00;;;;;;5028069;28;19925;-85
2021/04/17 14:36:28;;;;;;;;;;;20.60;58.30;;;;;;5029505;28;19980;-85
2021/04/17 14:38:56;;;;;;;;;;;20.90;59.00;;;;;;4994820;28;19929;-86
2021/04/17 14:41:23;;;;;;;;;;;20.90;57.40;;;;;;5020889;28;19929;-86
2021/04/17 14:43:50;;;;;;;;;;;21.10;57.80;;;;;;5026886;28;19935;-88